Time;durP1;ratioP1;P1;durP2;ratioP2;P2;SDS_P1;SDS_P2;PMS_P1;PMS_P2;Temp;Humidity;BMP_temperature;BMP_pressure;BME280_temperature;BME280_humidity;BME280_pressure;Samples;Min_cycle;Max_cycle;Signal;HPM_P1;HPM_P2
2023/01/16 00:01:59;;;;;;;5.78;3.45;;;4.20;99.90;;;;;;5035633;28;20029;-86
2023/01/16 00:04:28;;;;;;;2.53;2.33;;;5.40;99.90;;;;;;5053420;28;20125;-84
2023/01/16 00:06:54;;;;;;;3.65;2.30;;;4.20;99.90;;;;;;5051873;28;20067;-83
2023/01/16 00:09:20;;;;;;;7.65;2.60;;;4.00;99.90;;;;;;5027931;28;20519;-88
2023/01/16 00:11:46;;;;;;;6.47;3.40;;;4.20;99.90;;;;;;5051089;28;20036;-84
2023/01/16 00:14:13;;;;;;;6.03;3.22;;;;;;;;;;5042707;28;20048;-85
2023/01/16 00:16:38;;;;;;;3.78;2.97;;;4.20;99.90;;;;;;5028886;28;20045;-87
2023/01/16 00:19:05;;;;;;;5.55;3.20;;;3.80;99.90;;;;;;5062332;28;20175;-83
2023/01/16 00:21:30;;;;;;;4.10;3.33;;;4.30;99.90;;;;;;5061609;28;20093;-85
2023/01/16 00:23:58;;;;;;;6.18;3.00;;;4.40;99.90;;;;;;5066974;28;20463;-84
2023/01/16 00:26:27;;;;;;;6.28;3.42;;;5.40;99.90;;;;;;5032452;28;20045;-86
2023/01/16 00:28:53;;;;;;;4.68;3.17;;;3.70;99.90;;;;;;5046730;28;20040;-83
2023/01/16 00:31:19;;;;;;;3.55;2.80;;;6.30;99.90;;;;;;5044130;28;20102;-85
2023/01/16 00:33:46;;;;;;;5.80;2.72;;;4.20;99.90;;;;;;5029677;28;20051;-84
2023/01/16 00:36:12;;;;;;;5.28;2.25;;;5.60;99.90;;;;;;5027905;28;20500;-85
2023/01/16 00:38:37;;;;;;;6.15;2.33;;;5.90;99.90;;;;;;5028974;28;20049;-85
2023/01/16 00:41:03;;;;;;;6.43;2.67;;;5.90;99.90;;;;;;5051715;28;20384;-83
2023/01/16 00:43:29;;;;;;;7.40;2.63;;;4.10;99.90;;;;;;5049927;28;20091;-86
2023/01/16 00:45:56;;;;;;;2.72;1.95;;;5.40;99.90;;;;;;5042090;28;20591;-88
2023/01/16 00:48:27;;;;;;;3.35;1.90;;;5.30;99.90;;;;;;5049444;28;20122;-87
2023/01/16 00:50:53;;;;;;;6.95;2.38;;;4.00;99.90;;;;;;5048821;28;20119;-83
2023/01/16 00:53:19;;;;;;;5.88;2.42;;;3.90;99.90;;;;;;5032654;28;20634;-87
2023/01/16 00:55:45;;;;;;;4.65;1.90;;;3.90;99.90;;;;;;5044691;28;20037;-86
2023/01/16 00:58:11;;;;;;;5.93;2.13;;;3.80;99.90;;;;;;5065892;28;20059;-83
2023/01/16 01:00:37;;;;;;;5.97;3.10;;;3.90;99.90;;;;;;5067728;28;20048;-85
2023/01/16 01:03:04;;;;;;;6.65;2.13;;;3.70;99.90;;;;;;5050235;28;20040;-86
2023/01/16 01:05:30;;;;;;;6.13;2.28;;;3.40;99.90;;;;;;5042308;28;20526;-83
2023/01/16 01:07:55;;;;;;;5.43;2.28;;;5.60;99.90;;;;;;5029430;28;20048;-83
2023/01/16 01:10:21;;;;;;;5.88;1.77;;;5.60;99.90;;;;;;5062802;28;20037;-83
2023/01/16 01:12:47;;;;;;;4.53;2.30;;;;;;;;;;5044534;28;20037;-84
2023/01/16 01:15:14;;;;;;;6.63;1.88;;;3.70;99.90;;;;;;5028995;28;20040;-86
2023/01/16 01:17:49;;;;;;;5.53;1.95;;;3.70;99.90;;;;;;5029233;28;20627;-84
2023/01/16 01:20:21;;;;;;;5.13;1.73;;;5.30;99.90;;;;;;5029370;28;20040;-84
2023/01/16 01:22:49;;;;;;;6.20;2.55;;;3.60;99.90;;;;;;5040893;28;20128;-85
2023/01/16 01:25:15;;;;;;;4.18;1.40;;;4.20;99.90;;;;;;5042740;28;20516;-85
2023/01/16 01:27:40;;;;;;;5.57;2.05;;;3.60;99.90;;;;;;5045203;28;20044;-85
2023/01/16 01:30:07;;;;;;;7.35;2.40;;;5.30;99.90;;;;;;5030968;28;20039;-85
2023/01/16 01:32:33;;;;;;;4.40;2.05;;;3.60;99.90;;;;;;5043129;28;20044;-84
2023/01/16 01:34:58;;;;;;;2.53;1.38;;;5.10;99.90;;;;;;5028175;28;20382;-90
2023/01/16 01:37:24;;;;;;;3.38;2.05;;;5.20;99.90;;;;;;5027514;28;20527;-84
2023/01/16 01:39:51;;;;;;;6.72;2.22;;;5.40;99.90;;;;;;5048949;28;20091;-83
2023/01/16 01:45:11;;;;;;;2.85;1.52;;;5.30;99.90;;;;;;5049951;28;20044;-84
2023/01/16 01:47:39;;;;;;;3.45;1.58;;;3.60;99.90;;;;;;5054034;28;20052;-83
2023/01/16 01:50:17;;;;;;;3.58;1.70;;;5.10;99.90;;;;;;5032497;28;20550;-84
2023/01/16 01:52:43;;;;;;;4.57;1.58;;;3.70;99.90;;;;;;5033091;28;20540;-84
2023/01/16 01:55:12;;;;;;;6.25;1.73;;;3.70;99.90;;;;;;5046846;28;20385;-84
2023/01/16 01:57:42;;;;;;;4.70;1.80;;;3.50;99.90;;;;;;5032111;28;20494;-85
2023/01/16 02:00:15;;;;;;;8.50;1.67;;;5.30;99.90;;;;;;5045920;28;20543;-85
2023/01/16 02:03:06;;;;;;;5.93;1.90;;;3.60;99.90;;;;;;5038356;28;20051;-87
2023/01/16 02:05:36;;;;;;;3.28;1.60;;;3.60;99.90;;;;;;5063403;28;20041;-86
2023/01/16 02:08:04;;;;;;;5.60;1.55;;;3.60;99.90;;;;;;5041531;28;20125;-84
2023/01/16 02:10:42;;;;;;;6.57;1.92;;;3.60;99.90;;;;;;5029266;28;20040;-85
2023/01/16 02:13:07;;;;;;;4.72;2.28;;;3.60;99.90;;;;;;5029890;28;20049;-84
2023/01/16 02:15:35;;;;;;;10.65;1.95;;;3.50;99.90;;;;;;5048136;28;20032;-84
2023/01/16 02:20:59;;;;;;;6.10;1.77;;;3.60;99.90;;;;;;5032479;28;20067;-84
2023/01/16 02:23:47;;;;;;;4.20;1.67;;;3.70;99.90;;;;;;5039077;28;20041;-83
2023/01/16 02:26:57;;;;;;;5.50;1.60;;;3.70;99.90;;;;;;5057757;28;20068;-84
2023/01/16 02:29:35;;;;;;;4.68;1.52;;;3.70;99.90;;;;;;5047479;28;20041;-85
2023/01/16 02:32:23;;;;;;;5.38;1.60;;;3.70;99.90;;;;;;5040603;28;20102;-83
2023/01/16 02:35:07;;;;;;;8.43;1.98;;;3.70;99.90;;;;;;5038639;28;20041;-84
2023/01/16 02:37:35;;;;;;;2.30;1.60;;;3.60;99.90;;;;;;5043698;28;20400;-84
2023/01/16 02:40:20;;;;;;;5.40;1.50;;;3.70;99.90;;;;;;5031050;28;20037;-85
2023/01/16 02:42:51;;;;;;;8.35;2.33;;;3.70;99.90;;;;;;5039415;28;20044;-84
2023/01/16 02:45:42;;;;;;;8.07;2.10;;;3.30;99.90;;;;;;5032404;28;20040;-86
2023/01/16 02:48:20;;;;;;;6.20;2.13;;;5.00;99.90;;;;;;5061658;28;20050;-83
2023/01/16 02:51:19;;;;;;;5.57;1.42;;;3.60;99.90;;;;;;5041994;28;20056;-84
2023/01/16 02:53:57;;;;;;;6.13;1.67;;;3.60;99.90;;;;;;5015397;28;20052;-84
2023/01/16 02:56:35;;;;;;;7.70;1.73;;;3.60;99.90;;;;;;5032036;28;20037;-86
2023/01/16 02:59:02;;;;;;;11.40;2.38;;;3.60;99.90;;;;;;5065747;28;20093;-84
2023/01/16 03:01:28;;;;;;;8.80;2.05;;;5.30;99.90;;;;;;5064525;28;20040;-84
2023/01/16 03:03:53;;;;;;;5.90;1.85;;;3.60;99.90;;;;;;5051880;28;20044;-85
2023/01/16 03:07:03;;;;;;;6.18;1.52;;;3.60;99.90;;;;;;5066846;28;20086;-83
2023/01/16 03:09:38;;;;;;;6.95;1.65;;;3.70;99.90;;;;;;5044645;28;20032;-83
2023/01/16 03:12:34;;;;;;;6.90;2.25;;;3.70;99.90;;;;;;5034257;28;20380;-84
2023/01/16 03:15:15;;;;;;;4.53;1.70;;;3.70;99.90;;;;;;5049452;28;20190;-86
2023/01/16 03:18:08;;;;;;;5.95;1.95;;;3.70;99.90;;;;;;5028224;28;20404;-84
2023/01/16 03:20:49;;;;;;;5.15;1.88;;;3.70;99.90;;;;;;5065040;28;20045;-87
2023/01/16 03:23:39;;;;;;;7.10;1.65;;;3.70;99.90;;;;;;5069435;28;20124;-84
2023/01/16 03:26:16;;;;;;;9.45;1.95;;;3.60;99.90;;;;;;5043800;28;20036;-86
2023/01/16 03:28:51;;;;;;;6.93;1.63;;;3.60;99.90;;;;;;5036895;28;20761;-85
2023/01/16 03:31:25;;;;;;;7.30;1.70;;;5.40;99.90;;;;;;5041794;28;20047;-86
2023/01/16 03:34:02;;;;;;;4.38;1.58;;;3.60;99.90;;;;;;5034381;28;20048;-84
2023/01/16 03:36:44;;;;;;;5.70;1.88;;;5.30;99.90;;;;;;5032932;28;20040;-85
2023/01/16 03:39:13;;;;;;;4.05;1.95;;;3.50;99.90;;;;;;5034180;28;20128;-86
2023/01/16 03:41:40;;;;;;;3.20;1.70;;;3.40;99.90;;;;;;5026057;28;20135;-83
2023/01/16 03:44:13;;;;;;;7.07;1.65;;;3.90;99.90;;;;;;5068147;28;20036;-84
2023/01/16 03:46:48;;;;;;;4.85;1.63;;;3.50;99.90;;;;;;5050655;28;20075;-84
2023/01/16 03:49:24;;;;;;;9.00;2.10;;;3.50;99.90;;;;;;5035297;28;20036;-83
2023/01/16 03:51:55;;;;;;;3.75;1.38;;;3.50;99.90;;;;;;5054385;28;20032;-84
2023/01/16 03:54:59;;;;;;;5.88;2.00;;;5.10;99.90;;;;;;5069502;28;20047;-84
2023/01/16 03:57:29;;;;;;;5.35;1.85;;;3.50;99.90;;;;;;5066572;28;20484;-85
2023/01/16 03:59:55;;;;;;;5.97;2.50;;;5.30;99.90;;;;;;5070158;28;20032;-87
2023/01/16 04:02:30;;;;;;;6.28;2.13;;;3.40;99.90;;;;;;5045510;28;20148;-84
2023/01/16 04:05:05;;;;;;;7.03;2.10;;;3.40;99.90;;;;;;5030713;28;20048;-84
2023/01/16 04:07:39;;;;;;;6.15;2.38;;;5.60;99.90;;;;;;5042230;28;20037;-84
2023/01/16 04:10:10;;;;;;;5.78;2.47;;;3.20;99.90;;;;;;5029670;28;20054;-87
2023/01/16 04:12:42;;;;;;;7.82;3.03;;;3.70;99.90;;;;;;5047809;28;20086;-88
2023/01/16 04:15:09;;;;;;;7.03;2.75;;;2.20;99.90;;;;;;5044315;28;20044;-85
2023/01/16 04:17:38;;;;;;;6.05;2.75;;;3.50;99.90;;;;;;5043827;28;20039;-84
2023/01/16 04:20:09;;;;;;;7.78;3.55;;;3.50;99.90;;;;;;5045286;28;20053;-84
2023/01/16 04:22:35;;;;;;;12.57;3.55;;;3.50;99.90;;;;;;5044332;28;20492;-84
2023/01/16 04:25:03;;;;;;;6.63;3.13;;;5.20;99.90;;;;;;5028321;28;20075;-84
2023/01/16 04:27:29;;;;;;;4.45;3.05;;;3.60;99.90;;;;;;5028536;28;20107;-83
2023/01/16 04:29:56;;;;;;;10.25;3.70;;;4.90;99.90;;;;;;5045210;28;20548;-85
2023/01/16 04:32:22;;;;;;;7.15;3.85;;;3.50;99.90;;;;;;5062410;28;20101;-83
2023/01/16 04:34:47;;;;;;;10.07;3.83;;;3.10;99.90;;;;;;5044181;28;20119;-83
2023/01/16 04:37:16;;;;;;;9.20;4.40;;;4.80;99.90;;;;;;5026546;28;20051;-86
2023/01/16 04:39:46;;;;;;;8.00;4.03;;;5.80;99.90;;;;;;5044819;28;20028;-83
2023/01/16 04:42:12;;;;;;;6.35;4.00;;;4.50;99.90;;;;;;5028134;28;20045;-83
2023/01/16 04:44:38;;;;;;;9.25;5.28;;;5.50;99.90;;;;;;5060302;28;20036;-83
2023/01/16 04:47:03;;;;;;;10.75;4.82;;;5.60;99.90;;;;;;5043962;28;20109;-83
2023/01/16 04:49:29;;;;;;;12.05;4.93;;;3.60;99.90;;;;;;5041570;28;20029;-83
2023/01/16 04:51:55;;;;;;;8.80;5.07;;;4.70;99.90;;;;;;5059244;28;20040;-82
2023/01/16 04:54:21;;;;;;;7.72;4.93;;;5.90;99.90;;;;;;5027784;28;20171;-86
2023/01/16 04:56:46;;;;;;;8.23;5.35;;;5.50;99.90;;;;;;5049667;28;20055;-84
2023/01/16 04:59:15;;;;;;;11.48;5.88;;;3.30;99.90;;;;;;5040009;28;20033;-85
2023/01/16 05:01:41;;;;;;;9.50;5.85;;;4.90;99.90;;;;;;5038425;28;20037;-88
2023/01/16 05:04:09;;;;;;;10.57;5.32;;;5.20;99.90;;;;;;5066358;28;20045;-83
2023/01/16 05:06:35;;;;;;;11.40;5.80;;;5.80;99.90;;;;;;5044036;28;20133;-83
2023/01/16 05:09:02;;;;;;;12.60;5.97;;;5.60;99.90;;;;;;5027852;28;20048;-83
2023/01/16 05:11:28;;;;;;;13.13;6.85;;;3.60;99.90;;;;;;5026910;28;20052;-83
2023/01/16 05:13:53;;;;;;;17.30;7.25;;;3.70;99.90;;;;;;5028848;28;20057;-83
2023/01/16 05:16:19;;;;;;;12.32;7.20;;;3.60;99.90;;;;;;5027051;28;20424;-87
2023/01/16 05:18:45;;;;;;;15.82;6.82;;;4.80;99.90;;;;;;5045523;28;20108;-83
2023/01/16 05:21:11;;;;;;;10.32;6.57;;;5.10;99.90;;;;;;5029105;28;20049;-88
2023/01/16 05:23:37;;;;;;;14.43;7.50;;;5.50;99.90;;;;;;5027838;28;20040;-86
2023/01/16 05:26:04;;;;;;;11.88;6.97;;;3.70;99.90;;;;;;5026683;28;20730;-86
2023/01/16 05:28:30;;;;;;;13.77;6.78;;;3.80;99.90;;;;;;5061236;28;20127;-88
2023/01/16 05:30:56;;;;;;;12.85;7.13;;;4.10;99.90;;;;;;5061522;28;20202;-87
2023/01/16 05:33:22;;;;;;;8.73;6.03;;;5.30;99.90;;;;;;5041298;28;20475;-84
2023/01/16 05:35:49;;;;;;;10.45;6.97;;;5.00;99.90;;;;;;5025703;28;20123;-84
2023/01/16 05:38:15;;;;;;;10.48;7.18;;;5.40;99.90;;;;;;5027209;28;20041;-84
2023/01/16 05:40:41;;;;;;;11.00;7.18;;;3.30;99.90;;;;;;5043078;28;20043;-83
2023/01/16 05:43:07;;;;;;;8.02;6.70;;;3.90;99.90;;;;;;5043586;28;20605;-86
2023/01/16 05:45:32;;;;;;;11.57;6.85;;;5.40;99.90;;;;;;5060469;28;20131;-83
2023/01/16 05:47:58;;;;;;;12.48;7.68;;;3.60;99.90;;;;;;5042242;28;20047;-83
2023/01/16 05:50:24;;;;;;;9.95;7.55;;;4.00;99.90;;;;;;5041151;28;20098;-87
2023/01/16 05:52:51;;;;;;;8.48;7.38;;;5.50;99.90;;;;;;5042504;28;20052;-88
2023/01/16 05:55:17;;;;;;;13.82;7.25;;;5.50;99.90;;;;;;5024573;28;20097;-84
2023/01/16 05:57:44;;;;;;;11.68;7.18;;;;;;;;;;5027826;28;20033;-86
2023/01/16 06:00:10;;;;;;;12.05;6.53;;;3.60;99.90;;;;;;5040980;28;20894;-84
2023/01/16 06:02:36;;;;;;;14.40;6.68;;;3.60;99.90;;;;;;4343742;28;10000720;-84
2023/01/16 06:05:10;;;;;;;14.48;7.38;;;3.60;99.90;;;;;;5028408;28;20048;-85
2023/01/16 06:07:35;;;;;;;11.60;6.75;;;3.60;99.90;;;;;;5049084;28;20040;-85
2023/01/16 06:10:02;;;;;;;10.05;7.03;;;2.20;99.90;;;;;;5037230;28;20097;-87
2023/01/16 06:12:28;;;;;;;13.63;6.78;;;3.80;99.90;;;;;;5067560;28;21007;-83
2023/01/16 06:14:53;;;;;;;16.00;7.38;;;2.60;99.90;;;;;;5027789;28;20047;-84
2023/01/16 06:17:19;;;;;;;9.98;6.85;;;5.10;99.90;;;;;;5057852;28;20040;-84
2023/01/16 06:19:45;;;;;;;9.95;7.75;;;4.80;99.90;;;;;;5049354;28;20052;-85
2023/01/16 06:22:12;;;;;;;16.00;8.60;;;3.50;99.90;;;;;;5045875;28;20044;-85
2023/01/16 06:24:38;;;;;;;13.88;8.65;;;5.20;99.90;;;;;;5060180;28;20077;-86
2023/01/16 06:27:04;;;;;;;11.27;8.07;;;4.40;99.90;;;;;;5047015;28;20174;-85
2023/01/16 06:29:30;;;;;;;11.45;8.20;;;3.50;99.90;;;;;;5062476;28;20738;-85
2023/01/16 06:31:56;;;;;;;13.05;8.35;;;;;;;;;;5066738;28;20044;-84
2023/01/16 06:34:22;;;;;;;13.32;10.15;;;3.50;99.90;;;;;;5026489;28;20041;-85
2023/01/16 06:36:49;;;;;;;15.20;8.55;;;4.30;99.90;;;;;;5061915;28;20036;-86
2023/01/16 06:39:15;;;;;;;17.15;8.82;;;3.20;99.90;;;;;;5049614;28;20045;-85
2023/01/16 06:41:42;;;;;;;11.50;8.55;;;5.10;99.90;;;;;;5051865;28;20518;-84
2023/01/16 06:44:08;;;;;;;15.57;7.97;;;;;;;;;;5066830;28;20115;-82
2023/01/16 06:46:34;;;;;;;12.82;8.70;;;3.40;99.90;;;;;;5032344;28;20536;-83
2023/01/16 06:49:00;;;;;;;12.15;8.05;;;5.30;99.90;;;;;;5029375;28;20464;-82
2023/01/16 06:51:26;;;;;;;14.07;9.00;;;4.80;99.90;;;;;;5036581;28;20048;-84
2023/01/16 06:53:52;;;;;;;11.70;7.70;;;4.90;99.90;;;;;;5029802;28;20040;-83
2023/01/16 06:56:19;;;;;;;14.68;8.30;;;4.10;99.90;;;;;;5032999;28;20399;-84
2023/01/16 06:58:47;;;;;;;12.35;7.95;;;5.50;99.90;;;;;;5045672;28;20093;-84
2023/01/16 07:01:13;;;;;;;14.63;8.25;;;3.30;99.90;;;;;;5049456;28;20041;-84
2023/01/16 07:03:38;;;;;;;16.35;10.13;;;3.30;99.90;;;;;;5055788;28;20396;-83
2023/01/16 07:06:04;;;;;;;14.43;8.40;;;5.10;99.90;;;;;;5050205;28;20044;-83
2023/01/16 07:08:30;;;;;;;11.95;7.75;;;3.30;99.90;;;;;;5067284;28;20106;-83
2023/01/16 07:11:00;;;;;;;10.68;7.60;;;3.30;99.90;;;;;;5059134;28;20044;-83
2023/01/16 07:13:28;;;;;;;10.75;7.40;;;3.30;99.90;;;;;;5041095;28;20056;-84
2023/01/16 07:24:17;;;;;;;12.80;6.75;;;3.30;99.90;;;;;;5044601;28;19920;-82
2023/01/16 07:26:50;;;;;;;10.25;6.63;;;3.20;99.90;;;;;;5049789;28;20041;-83
2023/01/16 07:29:15;;;;;;;11.23;5.72;;;4.90;99.90;;;;;;5032943;28;20049;-83
2023/01/16 07:31:41;;;;;;;11.48;6.85;;;3.20;99.90;;;;;;5056814;28;20047;-82
2023/01/16 07:34:07;;;;;;;10.25;7.18;;;4.40;99.90;;;;;;5049886;28;20071;-83
2023/01/16 07:36:32;;;;;;;9.93;6.05;;;3.20;99.90;;;;;;5049706;28;20044;-84
2023/01/16 07:38:58;;;;;;;11.63;5.68;;;3.60;99.90;;;;;;5035466;28;20075;-83
2023/01/16 07:41:25;;;;;;;11.20;6.03;;;3.10;99.90;;;;;;5044116;28;20735;-82
2023/01/16 07:43:51;;;;;;;12.30;6.15;;;3.20;99.90;;;;;;5050231;28;20063;-83
2023/01/16 07:46:16;;;;;;;8.30;5.10;;;3.20;99.90;;;;;;5024032;28;20496;-83
2023/01/16 07:48:42;;;;;;;9.52;5.75;;;3.10;99.90;;;;;;5044070;28;20036;-84
2023/01/16 07:51:08;;;;;;;8.43;5.00;;;4.80;99.90;;;;;;5052990;28;20097;-83
2023/01/16 07:53:33;;;;;;;20.23;5.72;;;4.40;99.90;;;;;;5051393;28;20040;-83
2023/01/16 07:56:01;;;;;;;11.75;5.72;;;3.10;99.90;;;;;;5035526;28;20115;-83
2023/01/16 07:58:27;;;;;;;11.23;6.20;;;4.50;99.90;;;;;;5027457;28;20456;-82
2023/01/16 08:00:54;;;;;;;14.35;5.35;;;4.70;99.90;;;;;;5037672;28;20085;-83
2023/01/16 08:03:21;;;;;;;9.80;5.35;;;4.50;99.90;;;;;;5047965;28;20095;-82
2023/01/16 08:05:49;;;;;;;11.70;5.53;;;3.10;99.90;;;;;;5033773;28;20040;-84
2023/01/16 08:08:16;;;;;;;11.70;5.00;;;4.80;99.90;;;;;;5046354;28;20436;-84
2023/01/16 08:10:42;;;;;;;8.52;4.90;;;3.20;99.90;;;;;;5050893;28;20041;-83
2023/01/16 08:13:07;;;;;;;9.38;4.93;;;3.20;99.90;;;;;;5051067;28;20116;-83
2023/01/16 08:15:33;;;;;;;11.75;5.20;;;3.00;99.90;;;;;;5052546;28;20036;-83
2023/01/16 08:17:59;;;;;;;10.85;4.80;;;5.10;99.90;;;;;;5053085;28;20033;-84
2023/01/16 08:20:25;;;;;;;9.52;4.90;;;3.00;99.90;;;;;;5036312;28;20075;-83
2023/01/16 08:22:52;;;;;;;14.32;5.75;;;3.20;99.90;;;;;;5052087;28;20131;-83
2023/01/16 08:25:20;;;;;;;9.50;5.18;;;3.20;99.90;;;;;;5052271;28;20084;-82
2023/01/16 08:27:45;;;;;;;12.82;5.68;;;3.10;99.90;;;;;;5033154;28;20094;-83
2023/01/16 08:30:12;;;;;;;9.20;5.25;;;3.20;99.90;;;;;;5051693;28;20044;-83
2023/01/16 08:32:38;;;;;;;9.35;5.07;;;3.10;99.90;;;;;;5050540;28;20044;-83
2023/01/16 08:35:04;;;;;;;14.25;5.10;;;3.20;99.90;;;;;;5051815;28;20037;-83
2023/01/16 08:37:31;;;;;;;9.15;4.72;;;3.20;99.90;;;;;;5027072;28;20050;-84
2023/01/16 08:39:56;;;;;;;11.25;5.10;;;5.20;99.90;;;;;;5061952;28;20083;-84
2023/01/16 08:53:26;;;;;;;15.50;5.75;;;3.00;99.90;;;;;;5061225;28;20052;-84
2023/01/16 08:55:52;;;;;;;7.93;4.75;;;4.10;99.90;;;;;;5032047;28;20559;-85
2023/01/16 08:58:20;;;;;;;10.60;5.28;;;3.20;99.90;;;;;;5031300;28;20049;-83
2023/01/16 09:00:47;;;;;;;7.53;4.55;;;3.30;99.90;;;;;;5032359;28;20056;-84
2023/01/16 09:03:13;;;;;;;6.85;4.38;;;3.10;99.90;;;;;;5056094;28;20127;-83
2023/01/16 09:05:39;;;;;;;11.85;5.45;;;3.30;99.90;;;;;;5050597;28;20044;-84
2023/01/16 09:08:04;;;;;;;12.98;4.50;;;3.20;99.90;;;;;;5048109;28;20048;-83
2023/01/16 09:10:30;;;;;;;9.32;4.25;;;5.10;99.90;;;;;;5047666;28;20044;-83
2023/01/16 09:15:40;;;;;;;13.82;4.70;;;3.00;99.90;;;;;;5050406;28;20056;-85
2023/01/16 09:18:06;;;;;;;14.85;5.10;;;3.30;99.90;;;;;;5047266;28;20536;-83
2023/01/16 09:20:32;;;;;;;10.23;4.43;;;3.30;99.90;;;;;;5047137;28;20495;-83
2023/01/16 09:22:59;;;;;;;7.95;4.60;;;3.40;99.90;;;;;;5061156;28;20045;-83
2023/01/16 09:25:25;;;;;;;11.57;5.05;;;3.40;99.90;;;;;;5033069;28;20041;-83
2023/01/16 09:27:51;;;;;;;8.07;4.43;;;4.40;99.90;;;;;;5051416;28;20055;-84
2023/01/16 09:30:16;;;;;;;10.95;3.92;;;3.40;99.90;;;;;;5035052;28;20048;-83
2023/01/16 09:32:45;;;;;;;7.55;4.13;;;3.40;99.90;;;;;;5033540;28;20048;-86
2023/01/16 09:35:11;;;;;;;10.50;4.35;;;3.40;99.90;;;;;;5051180;28;20605;-84
2023/01/16 09:37:37;;;;;;;6.65;3.70;;;3.30;99.90;;;;;;5048862;28;20048;-85
2023/01/16 09:40:03;;;;;;;7.93;3.53;;;3.40;99.90;;;;;;5049218;28;20054;-84
2023/01/16 09:45:35;;;;;;;7.88;3.50;;;2.10;99.90;;;;;;5050074;28;20044;-84
2023/01/16 09:48:05;;;;;;;7.65;3.40;;;3.40;99.90;;;;;;5035010;28;20032;-84
2023/01/16 09:50:50;;;;;;;9.80;4.68;;;3.50;99.90;;;;;;5049610;28;20094;-85
2023/01/16 09:59:11;;;;;;;10.85;3.33;;;3.40;99.90;;;;;;5036215;28;20480;-84
2023/01/16 10:01:42;;;;;;;6.63;2.78;;;3.50;99.90;;;;;;5063488;28;20040;-83
2023/01/16 10:04:29;;;;;;;9.20;3.30;;;3.40;99.90;;;;;;5027805;28;20040;-84
2023/01/16 10:07:30;;;;;;;8.68;3.40;;;3.50;99.90;;;;;;5040016;28;20044;-85
2023/01/16 10:10:16;;;;;;;8.70;2.95;;;3.60;99.90;;;;;;5047809;28;20050;-86
2023/01/16 10:13:04;;;;;;;4.50;3.00;;;3.60;99.90;;;;;;5057086;28;20053;-84
2023/01/16 10:15:57;;;;;;;7.30;2.90;;;3.60;99.90;;;;;;5036243;28;20051;-84
2023/01/16 10:18:26;;;;;;;9.35;3.13;;;3.60;99.90;;;;;;5048686;28;20575;-82
2023/01/16 10:21:18;;;;;;;6.13;2.67;;;3.60;99.90;;;;;;5058758;28;20101;-84
2023/01/16 10:24:06;;;;;;;5.82;2.80;;;3.60;99.90;;;;;;5049837;28;20067;-83
2023/01/16 10:26:57;;;;;;;8.52;3.60;;;3.60;99.90;;;;;;5048552;28;20454;-83
2023/01/16 10:29:28;;;;;;;6.80;2.83;;;3.70;99.90;;;;;;5032636;28;20082;-86
2023/01/16 10:32:16;;;;;;;7.60;3.05;;;3.60;99.90;;;;;;5034663;28;20040;-83
2023/01/16 10:35:05;;;;;;;7.95;2.95;;;3.60;99.90;;;;;;5054029;28;20130;-85
2023/01/16 10:37:33;;;;;;;6.30;2.65;;;3.60;99.90;;;;;;5036468;28;20072;-82
2023/01/16 10:40:07;;;;;;;5.00;1.88;;;4.70;99.90;;;;;;5040999;28;20051;-83
2023/01/16 10:51:00;;;;;;;5.55;1.92;;;3.60;99.90;;;;;;5042318;28;19921;-83
2023/01/16 10:53:26;;;;;;;4.78;1.67;;;5.20;99.90;;;;;;5049739;28;20048;-85
2023/01/16 10:55:54;;;;;;;3.08;1.58;;;4.80;99.90;;;;;;5032885;28;20036;-83
2023/01/16 10:58:35;;;;;;;3.47;1.25;;;3.30;99.90;;;;;;5047627;28;20068;-83
2023/01/16 11:01:19;;;;;;;4.43;1.48;;;3.70;99.90;;;;;;5033851;28;20040;-84
2023/01/16 11:03:50;;;;;;;4.13;2.25;;;3.60;99.90;;;;;;5048335;28;20045;-82
2023/01/16 11:06:26;;;;;;;3.00;1.27;;;3.60;99.90;;;;;;5033304;28;20036;-83
2023/01/16 11:09:02;;;;;;;1.73;1.02;;;3.50;99.90;;;;;;5033047;28;20040;-85
2023/01/16 11:20:25;;;;;;;2.60;0.60;;;4.90;99.90;;;;;;5041696;28;20037;-83
2023/01/16 11:22:59;;;;;;;2.13;0.60;;;4.30;99.90;;;;;;5033798;28;20151;-84
2023/01/16 11:25:26;;;;;;;2.13;1.00;;;4.90;99.90;;;;;;5042221;28;20036;-87
2023/01/16 11:27:54;;;;;;;2.50;0.52;;;3.30;99.90;;;;;;5033197;28;20052;-83
2023/01/16 11:30:27;;;;;;;1.50;0.60;;;3.10;99.90;;;;;;5007394;28;20033;-83
2023/01/16 11:32:55;;;;;;;3.38;0.82;;;3.40;99.90;;;;;;5016067;28;20033;-84
2023/01/16 11:35:25;;;;;;;2.40;1.00;;;5.00;99.90;;;;;;5018794;28;20045;-82
2023/01/16 11:37:52;;;;;;;1.17;0.47;;;4.50;99.90;;;;;;5031351;28;20404;-84
2023/01/16 11:40:24;;;;;;;1.25;0.80;;;3.30;99.90;;;;;;5018853;28;20502;-84
2023/01/16 11:46:07;;;;;;;3.10;0.60;;;3.80;99.90;;;;;;5044943;28;20049;-83
2023/01/16 11:48:39;;;;;;;0.43;0.43;;;3.30;99.90;;;;;;5032541;28;20056;-82
2023/01/16 11:51:09;;;;;;;2.10;1.08;;;3.10;99.90;;;;;;5032192;28;20072;-86
2023/01/16 11:53:35;;;;;;;0.90;0.73;;;3.60;99.90;;;;;;5012749;28;20049;-85
2023/01/16 11:56:02;;;;;;;0.85;0.57;;;3.30;99.90;;;;;;5032140;28;20037;-86
2023/01/16 11:58:37;;;;;;;1.45;1.27;;;3.00;99.90;;;;;;5029906;28;20412;-85
2023/01/16 12:01:26;;;;;;;1.23;0.77;;;3.10;99.90;;;;;;5030601;28;20121;-86
2023/01/16 12:04:23;;;;;;;0.75;0.55;;;3.30;99.90;;;;;;5016427;28;20485;-85
2023/01/16 12:07:04;;;;;;;1.00;0.98;;;3.30;99.90;;;;;;5026763;28;20044;-86
2023/01/16 12:09:30;;;;;;;4.25;0.98;;;3.30;99.90;;;;;;5044589;28;20059;-86
2023/01/16 12:14:17;;;;;;;3.83;1.25;;;2.80;99.90;;;;;;5029842;28;20041;-85
2023/01/16 12:15:01;;;;;;;2.33;0.80;;;3.30;99.90;;;;;;5027612;28;20044;-87
2023/01/16 12:17:46;;;;;;;2.45;0.70;;;3.30;99.90;;;;;;5024409;28;20071;-86
2023/01/16 12:20:40;;;;;;;2.33;1.33;;;3.20;99.90;;;;;;5050828;28;20128;-86
2023/01/16 12:23:43;;;;;;;0.95;0.80;;;3.30;99.90;;;;;;5051593;28;20040;-83
2023/01/16 12:26:21;;;;;;;2.53;1.05;;;3.30;99.90;;;;;;5039781;28;20467;-83
2023/01/16 12:29:07;;;;;;;1.75;0.75;;;3.30;99.90;;;;;;5036179;28;20480;-83
2023/01/16 12:32:11;;;;;;;1.15;0.70;;;3.30;99.90;;;;;;5053842;28;20048;-83
2023/01/16 12:35:08;;;;;;;0.70;0.68;;;3.30;99.90;;;;;;5055335;28;20032;-84
2023/01/16 12:38:16;;;;;;;3.97;0.93;;;3.30;99.90;;;;;;5054655;28;20785;-85
2023/01/16 12:44:13;;;;;;;0.60;0.47;;;3.30;99.90;;;;;;5044486;28;20040;-86
2023/01/16 12:47:02;;;;;;;2.00;0.93;;;3.40;99.90;;;;;;5042520;28;20047;-86
2023/01/16 12:49:49;;;;;;;1.92;1.10;;;3.40;99.90;;;;;;5051372;28;20045;-82
2023/01/16 12:52:31;;;;;;;2.83;1.15;;;3.40;99.90;;;;;;5050290;28;20059;-82
2023/01/16 12:54:59;;;;;;;2.90;0.68;;;3.50;99.90;;;;;;5051837;28;20052;-83
2023/01/16 12:57:40;;;;;;;2.65;1.05;;;3.50;99.90;;;;;;5043380;28;20411;-83
2023/01/16 13:00:20;;;;;;;4.30;0.93;;;3.50;99.90;;;;;;5034669;28;20047;-83
2023/01/16 13:03:21;;;;;;;1.63;0.85;;;3.50;99.90;;;;;;5031621;28;20044;-84
2023/01/16 13:05:49;;;;;;;1.00;0.70;;;3.60;99.90;;;;;;4957083;28;20575;-84
2023/01/16 13:08:37;;;;;;;2.47;0.82;;;3.60;99.90;;;;;;5033692;28;20106;-84
2023/01/16 13:14:08;;;;;;;2.85;0.77;;;3.60;99.90;;;;;;5067362;28;20045;-84
2023/01/16 13:16:42;;;;;;;1.77;0.80;;;3.30;99.90;;;;;;5048174;28;20473;-82
2023/01/16 13:19:23;;;;;;;1.77;0.75;;;3.50;99.90;;;;;;5022868;28;20050;-85
2023/01/16 13:22:06;;;;;;;0.75;0.60;;;5.30;99.90;;;;;;5047527;28;20041;-83
2023/01/16 13:24:58;;;;;;;1.85;0.57;;;3.60;99.90;;;;;;5047011;28;20488;-84
2023/01/16 13:27:37;;;;;;;1.67;0.80;;;3.50;99.90;;;;;;5011440;28;20064;-82
2023/01/16 13:30:08;;;;;;;2.08;0.50;;;3.80;99.90;;;;;;5047535;28;20052;-83
2023/01/16 13:32:42;;;;;;;3.95;0.70;;;3.70;99.90;;;;;;5027571;28;20044;-83
2023/01/16 13:35:20;;;;;;;2.35;0.95;;;3.70;99.90;;;;;;5046455;28;20040;-83
2023/01/16 13:37:59;;;;;;;4.03;1.17;;;3.70;99.90;;;;;;5031851;28;20341;-87
2023/01/16 13:40:56;;;;;;;1.40;1.00;;;3.80;99.90;;;;;;5046814;28;20094;-83
2023/01/16 13:46:15;;;;;;;3.40;1.00;;;5.20;99.90;;;;;;5046558;28;20505;-82
2023/01/16 13:48:44;;;;;;;1.83;0.85;;;3.80;99.90;;;;;;5043024;28;20047;-83
2023/01/16 13:51:16;;;;;;;2.45;0.95;;;3.50;99.90;;;;;;5028397;28;20588;-86
2023/01/16 13:53:51;;;;;;;1.90;0.90;;;3.30;99.90;;;;;;5040610;28;20041;-84
2023/01/16 13:56:23;;;;;;;3.30;1.27;;;6.10;99.90;;;;;;5045557;28;20098;-84
2023/01/16 13:59:24;;;;;;;1.17;1.10;;;5.40;99.90;;;;;;5025747;28;20053;-85
2023/01/16 14:01:51;;;;;;;1.67;1.00;;;4.30;99.90;;;;;;5041542;28;20110;-85
2023/01/16 14:04:19;;;;;;;3.88;1.27;;;3.90;99.90;;;;;;5039183;28;20081;-84
2023/01/16 14:06:50;;;;;;;1.90;1.30;;;4.00;99.90;;;;;;5048920;28;20043;-83
2023/01/16 14:09:21;;;;;;;2.60;1.48;;;5.70;99.90;;;;;;5031189;28;20520;-86
2023/01/16 14:12:14;;;;;;;2.40;0.77;;;4.00;99.90;;;;;;5030746;28;20130;-84
2023/01/16 14:17:49;;;;;;;1.92;1.20;;;4.70;99.90;;;;;;5044344;28;20498;-84
2023/01/16 14:20:51;;;;;;;3.88;1.73;;;4.10;99.90;;;;;;5048833;28;20144;-83
2023/01/16 14:26:17;;;;;;;;;;;4.00;99.90;;;;;;5049604;28;20135;-86
2023/01/16 14:28:49;;;;;;;5.20;1.33;;;4.00;99.90;;;;;;5025842;28;20386;-84
2023/01/16 14:31:23;;;;;;;1.90;1.20;;;4.40;99.90;;;;;;5028666;28;20045;-83
2023/01/16 14:33:49;;;;;;;;;;;4.00;99.90;;;;;;5043320;28;20488;-84